createdAt,value
2022-11-15T00:20:38.674Z,11.6
2022-11-15T00:50:00.831Z,11.6
2022-11-15T01:19:28.649Z,11.5
2022-11-15T01:48:53.063Z,11.2
2022-11-15T02:18:17.101Z,10.8
2022-11-15T02:47:41.459Z,10.9
2022-11-15T03:17:04.967Z,11.2
2022-11-15T03:46:30.751Z,11.2
2022-11-15T04:15:58.114Z,10.9
2022-11-15T04:45:24.097Z,11.5
2022-11-15T05:14:48.512Z,11.2
2022-11-15T05:44:11.731Z,11.2
2022-11-15T06:13:35.620Z,11.1
2022-11-15T06:42:50.957Z,10.8
2022-11-15T07:12:10.218Z,10.4
2022-11-15T07:41:28.780Z,10.6
2022-11-15T08:10:42.441Z,10.5
2022-11-15T08:40:01.592Z,10.4
2022-11-15T09:09:18.751Z,10.7
2022-11-15T09:38:38.196Z,10.9
2022-11-15T10:07:54.727Z,11.1
2022-11-15T10:37:05.306Z,11.8
2022-11-15T11:06:19.355Z,11.9
2022-11-15T11:35:40.972Z,11.9
2022-11-15T12:04:52.180Z,12.2
2022-11-15T12:34:14.618Z,13
2022-11-15T13:03:38.427Z,13.2
2022-11-15T13:33:00.117Z,13.3
2022-11-15T14:02:22.245Z,13.4
2022-11-15T14:31:44.279Z,13.3
2022-11-15T15:00:35.989Z,13.3
2022-11-15T15:29:25.324Z,13.1
2022-11-15T15:58:43.699Z,12.8
2022-11-15T16:28:03.216Z,12.4
2022-11-15T16:57:25.370Z,12.2
2022-11-15T17:26:48.248Z,12.1
2022-11-15T17:56:11.700Z,11.9
2022-11-15T18:25:38.792Z,11.9
2022-11-15T18:55:00.373Z,11.7
2022-11-15T19:24:11.879Z,11.6
2022-11-15T19:53:36.080Z,11.4
2022-11-15T20:22:14.095Z,11.2
2022-11-15T20:51:36.909Z,11.1
2022-11-15T21:20:57.375Z,11
2022-11-15T21:50:11.008Z,10.8
2022-11-15T22:19:24.701Z,10.6
2022-11-15T22:48:40.479Z,10.4
2022-11-15T23:17:38.329Z,10.4
2022-11-15T23:46:54.798Z,10.3
